sensor_id;sensor_type;location;lat;lon;timestamp;pressure;altitude;pressure_sealevel;temperature;humidity
74881;BME280;63427;49.654;6.596;2023-07-22T00:02:01;99620.56;;;17.30;35.04
74881;BME280;63427;49.654;6.596;2023-07-22T00:04:26;99622.08;;;17.02;35.43
74881;BME280;63427;49.654;6.596;2023-07-22T00:06:52;99621.37;;;17.31;35.27
74881;BME280;63427;49.654;6.596;2023-07-22T00:09:17;99619.96;;;17.78;35.34
74881;BME280;63427;49.654;6.596;2023-07-22T00:11:42;99616.04;;;17.42;35.28
74881;BME280;63427;49.654;6.596;2023-07-22T00:14:08;99615.35;;;17.20;36.12
74881;BME280;63427;49.654;6.596;2023-07-22T00:16:33;99613.98;;;16.97;36.54
74881;BME280;63427;49.654;6.596;2023-07-22T00:18:59;99614.43;;;16.84;36.63
74881;BME280;63427;49.654;6.596;2023-07-22T00:21:24;99614.92;;;16.77;36.39
74881;BME280;63427;49.654;6.596;2023-07-22T00:23:50;99615.88;;;16.65;36.69
74881;BME280;63427;49.654;6.596;2023-07-22T00:26:15;99614.89;;;16.95;36.15
74881;BME280;63427;49.654;6.596;2023-07-22T00:28:40;99615.68;;;16.57;36.60
74881;BME280;63427;49.654;6.596;2023-07-22T00:31:06;99615.57;;;16.72;36.52
74881;BME280;63427;49.654;6.596;2023-07-22T00:33:31;99618.80;;;17.04;36.63
74881;BME280;63427;49.654;6.596;2023-07-22T00:35:56;99616.63;;;16.41;36.62
74881;BME280;63427;49.654;6.596;2023-07-22T00:38:22;99615.59;;;16.56;36.21
74881;BME280;63427;49.654;6.596;2023-07-22T00:40:47;99612.65;;;16.72;36.38
74881;BME280;63427;49.654;6.596;2023-07-22T00:43:13;99609.46;;;16.79;36.65
74881;BME280;63427;49.654;6.596;2023-07-22T00:45:38;99606.60;;;16.97;36.18
74881;BME280;63427;49.654;6.596;2023-07-22T00:48:05;99608.65;;;16.50;37.16
74881;BME280;63427;49.654;6.596;2023-07-22T00:50:29;99606.96;;;16.62;36.33
74881;BME280;63427;49.654;6.596;2023-07-22T00:52:54;99605.02;;;16.51;36.84
74881;BME280;63427;49.654;6.596;2023-07-22T00:55:21;99604.88;;;16.74;37.36
74881;BME280;63427;49.654;6.596;2023-07-22T00:57:45;99599.62;;;16.69;37.40
74881;BME280;63427;49.654;6.596;2023-07-22T01:00:12;99600.01;;;16.63;37.45
74881;BME280;63427;49.654;6.596;2023-07-22T01:02:36;99597.99;;;16.52;36.78
74881;BME280;63427;49.654;6.596;2023-07-22T01:05:02;99596.51;;;16.59;37.11
74881;BME280;63427;49.654;6.596;2023-07-22T01:07:27;99595.33;;;16.18;37.60
74881;BME280;63427;49.654;6.596;2023-07-22T01:09:56;99595.47;;;16.59;36.92
74881;BME280;63427;49.654;6.596;2023-07-22T01:12:18;99594.47;;;16.34;37.72
74881;BME280;63427;49.654;6.596;2023-07-22T01:14:43;99596.59;;;16.38;36.95
74881;BME280;63427;49.654;6.596;2023-07-22T01:17:10;99594.85;;;16.47;36.91
74881;BME280;63427;49.654;6.596;2023-07-22T01:19:34;99592.20;;;16.41;37.37
74881;BME280;63427;49.654;6.596;2023-07-22T01:22:00;99593.39;;;16.23;38.40
74881;BME280;63427;49.654;6.596;2023-07-22T01:24:25;99593.75;;;16.45;36.99
74881;BME280;63427;49.654;6.596;2023-07-22T01:26:50;99593.84;;;16.27;37.30
74881;BME280;63427;49.654;6.596;2023-07-22T01:29:16;99594.39;;;16.05;37.58
74881;BME280;63427;49.654;6.596;2023-07-22T01:31:41;99597.25;;;16.29;37.74
74881;BME280;63427;49.654;6.596;2023-07-22T01:34:06;99595.48;;;16.24;37.36
74881;BME280;63427;49.654;6.596;2023-07-22T01:36:32;99597.21;;;16.10;37.66
74881;BME280;63427;49.654;6.596;2023-07-22T01:38:57;99595.39;;;16.09;37.61
74881;BME280;63427;49.654;6.596;2023-07-22T01:41:23;99594.20;;;16.20;36.70
74881;BME280;63427;49.654;6.596;2023-07-22T01:43:48;99589.79;;;16.04;37.73
74881;BME280;63427;49.654;6.596;2023-07-22T01:46:14;99592.75;;;15.98;37.77
74881;BME280;63427;49.654;6.596;2023-07-22T01:48:39;99591.40;;;16.01;37.96
74881;BME280;63427;49.654;6.596;2023-07-22T01:51:04;99586.49;;;15.97;38.00
74881;BME280;63427;49.654;6.596;2023-07-22T01:53:30;99584.92;;;15.82;37.69
74881;BME280;63427;49.654;6.596;2023-07-22T01:55:55;99586.60;;;15.87;37.32
74881;BME280;63427;49.654;6.596;2023-07-22T01:58:21;99588.05;;;16.03;37.42
74881;BME280;63427;49.654;6.596;2023-07-22T02:00:49;99591.07;;;15.89;38.11
74881;BME280;63427;49.654;6.596;2023-07-22T02:03:12;99590.94;;;15.68;39.02
74881;BME280;63427;49.654;6.596;2023-07-22T02:05:37;99590.47;;;15.74;38.52
74881;BME280;63427;49.654;6.596;2023-07-22T02:08:03;99590.61;;;15.63;38.91
74881;BME280;63427;49.654;6.596;2023-07-22T02:10:28;99586.73;;;15.79;38.21
74881;BME280;63427;49.654;6.596;2023-07-22T02:12:54;99586.29;;;15.96;38.16
74881;BME280;63427;49.654;6.596;2023-07-22T02:15:19;99588.08;;;15.50;38.89
74881;BME280;63427;49.654;6.596;2023-07-22T02:17:44;99586.93;;;15.82;39.01
74881;BME280;63427;49.654;6.596;2023-07-22T02:20:10;99584.09;;;15.90;38.29
74881;BME280;63427;49.654;6.596;2023-07-22T02:22:35;99582.73;;;15.34;38.60
74881;BME280;63427;49.654;6.596;2023-07-22T02:25:01;99578.17;;;15.85;37.62
74881;BME280;63427;49.654;6.596;2023-07-22T02:27:26;99575.91;;;15.52;37.74
74881;BME280;63427;49.654;6.596;2023-07-22T02:29:52;99581.55;;;15.60;38.65
74881;BME280;63427;49.654;6.596;2023-07-22T02:32:18;99580.35;;;15.58;38.34
74881;BME280;63427;49.654;6.596;2023-07-22T02:34:43;99585.78;;;15.34;39.32
74881;BME280;63427;49.654;6.596;2023-07-22T02:37:08;99581.25;;;15.35;38.93
74881;BME280;63427;49.654;6.596;2023-07-22T02:39:34;99580.22;;;15.24;38.75
74881;BME280;63427;49.654;6.596;2023-07-22T02:42:00;99582.18;;;15.50;38.68
74881;BME280;63427;49.654;6.596;2023-07-22T02:44:25;99583.11;;;15.62;38.84
74881;BME280;63427;49.654;6.596;2023-07-22T02:46:50;99584.63;;;15.22;39.18
74881;BME280;63427;49.654;6.596;2023-07-22T02:49:16;99583.70;;;15.19;39.02
74881;BME280;63427;49.654;6.596;2023-07-22T02:51:41;99586.32;;;15.25;38.72
74881;BME280;63427;49.654;6.596;2023-07-22T02:54:07;99588.46;;;15.32;39.24
74881;BME280;63427;49.654;6.596;2023-07-22T02:56:32;99589.70;;;15.29;39.45
74881;BME280;63427;49.654;6.596;2023-07-22T02:58:58;99589.20;;;14.98;39.65
74881;BME280;63427;49.654;6.596;2023-07-22T03:01:23;99585.12;;;14.75;40.53
74881;BME280;63427;49.654;6.596;2023-07-22T03:03:49;99587.43;;;15.37;39.06
74881;BME280;63427;49.654;6.596;2023-07-22T03:06:14;99587.28;;;15.12;40.22
74881;BME280;63427;49.654;6.596;2023-07-22T03:08:40;99588.46;;;15.14;40.28
74881;BME280;63427;49.654;6.596;2023-07-22T03:11:05;99589.07;;;15.14;40.05
74881;BME280;63427;49.654;6.596;2023-07-22T03:13:31;99587.62;;;15.25;39.61
74881;BME280;63427;49.654;6.596;2023-07-22T03:15:57;99586.02;;;15.24;40.21
74881;BME280;63427;49.654;6.596;2023-07-22T03:18:22;99585.45;;;15.19;40.09
74881;BME280;63427;49.654;6.596;2023-07-22T03:20:48;99585.78;;;15.29;39.61
74881;BME280;63427;49.654;6.596;2023-07-22T03:23:13;99584.71;;;15.34;39.61
74881;BME280;63427;49.654;6.596;2023-07-22T03:25:38;99578.26;;;15.24;39.39
74881;BME280;63427;49.654;6.596;2023-07-22T03:28:05;99578.78;;;15.21;40.60
74881;BME280;63427;49.654;6.596;2023-07-22T03:30:29;99579.62;;;15.28;39.63
74881;BME280;63427;49.654;6.596;2023-07-22T03:32:55;99581.62;;;15.34;39.96
74881;BME280;63427;49.654;6.596;2023-07-22T03:35:20;99584.37;;;15.22;40.54
74881;BME280;63427;49.654;6.596;2023-07-22T03:37:46;99587.28;;;15.15;40.18
74881;BME280;63427;49.654;6.596;2023-07-22T03:40:12;99588.85;;;15.04;40.54
74881;BME280;63427;49.654;6.596;2023-07-22T03:42:37;99591.15;;;15.03;40.75
74881;BME280;63427;49.654;6.596;2023-07-22T03:45:03;99589.41;;;15.31;40.42
74881;BME280;63427;49.654;6.596;2023-07-22T03:47:28;99590.78;;;15.13;39.88
74881;BME280;63427;49.654;6.596;2023-07-22T03:49:53;99593.05;;;15.03;40.62
74881;BME280;63427;49.654;6.596;2023-07-22T03:52:18;99593.49;;;15.21;40.75
74881;BME280;63427;49.654;6.596;2023-07-22T03:54:44;99596.97;;;15.31;39.89
74881;BME280;63427;49.654;6.596;2023-07-22T03:57:09;99594.96;;;15.00;40.36
74881;BME280;63427;49.654;6.596;2023-07-22T03:59:35;99597.24;;;15.34;39.90
74881;BME280;63427;49.654;6.596;2023-07-22T04:02:00;99595.55;;;15.09;39.79
74881;BME280;63427;49.654;6.596;2023-07-22T04:04:26;99597.40;;;15.04;40.33
74881;BME280;63427;49.654;6.596;2023-07-22T04:06:51;99598.94;;;15.31;39.71
74881;BME280;63427;49.654;6.596;2023-07-22T04:09:16;99600.59;;;14.96;40.32
74881;BME280;63427;49.654;6.596;2023-07-22T04:11:42;99600.35;;;14.87;40.70
74881;BME280;63427;49.654;6.596;2023-07-22T04:14:12;99598.34;;;15.57;38.87
74881;BME280;63427;49.654;6.596;2023-07-22T04:16:33;99599.61;;;15.22;40.01
74881;BME280;63427;49.654;6.596;2023-07-22T04:18:58;99606.97;;;15.08;40.31
74881;BME280;63427;49.654;6.596;2023-07-22T04:21:24;99608.27;;;15.04;40.48
74881;BME280;63427;49.654;6.596;2023-07-22T04:23:49;99609.05;;;15.10;40.58
74881;BME280;63427;49.654;6.596;2023-07-22T04:26:15;99608.90;;;14.90;40.97
74881;BME280;63427;49.654;6.596;2023-07-22T04:28:41;99610.89;;;14.67;40.78
74881;BME280;63427;49.654;6.596;2023-07-22T04:31:06;99613.15;;;14.90;40.43
74881;BME280;63427;49.654;6.596;2023-07-22T04:33:32;99617.22;;;14.80;41.14
74881;BME280;63427;49.654;6.596;2023-07-22T04:35:59;99616.56;;;14.81;41.46
74881;BME280;63427;49.654;6.596;2023-07-22T04:38:23;99614.16;;;14.61;41.24
74881;BME280;63427;49.654;6.596;2023-07-22T04:40:48;99611.63;;;15.10;40.26
74881;BME280;63427;49.654;6.596;2023-07-22T04:43:13;99612.09;;;15.06;41.35
74881;BME280;63427;49.654;6.596;2023-07-22T04:45:39;99608.68;;;15.01;41.50
74881;BME280;63427;49.654;6.596;2023-07-22T04:48:05;99607.92;;;15.20;40.67
74881;BME280;63427;49.654;6.596;2023-07-22T04:50:30;99609.32;;;15.51;40.61
74881;BME280;63427;49.654;6.596;2023-07-22T04:52:55;99607.46;;;15.41;40.00
74881;BME280;63427;49.654;6.596;2023-07-22T04:55:21;99609.76;;;15.64;40.22
74881;BME280;63427;49.654;6.596;2023-07-22T04:57:47;99614.11;;;15.55;39.66
74881;BME280;63427;49.654;6.596;2023-07-22T05:00:13;99614.22;;;15.87;39.23
74881;BME280;63427;49.654;6.596;2023-07-22T05:02:37;99613.25;;;15.45;39.26
74881;BME280;63427;49.654;6.596;2023-07-22T05:05:04;99615.52;;;15.64;40.01
74881;BME280;63427;49.654;6.596;2023-07-22T05:07:28;99615.20;;;15.96;40.18
74881;BME280;63427;49.654;6.596;2023-07-22T05:09:54;99615.34;;;15.89;39.03
74881;BME280;63427;49.654;6.596;2023-07-22T05:12:19;99618.01;;;15.82;39.97
74881;BME280;63427;49.654;6.596;2023-07-22T05:14:45;99616.03;;;16.08;38.48
74881;BME280;63427;49.654;6.596;2023-07-22T05:17:10;99620.35;;;15.87;39.11
74881;BME280;63427;49.654;6.596;2023-07-22T05:19:36;99621.13;;;15.97;39.13
74881;BME280;63427;49.654;6.596;2023-07-22T05:22:01;99621.09;;;16.20;39.58
74881;BME280;63427;49.654;6.596;2023-07-22T05:24:27;99620.33;;;16.32;38.55
74881;BME280;63427;49.654;6.596;2023-07-22T05:26:52;99619.44;;;16.27;38.74
74881;BME280;63427;49.654;6.596;2023-07-22T05:29:18;99624.01;;;16.31;38.24
74881;BME280;63427;49.654;6.596;2023-07-22T05:31:43;99623.71;;;16.75;38.33
74881;BME280;63427;49.654;6.596;2023-07-22T05:34:09;99622.66;;;16.40;38.33
74881;BME280;63427;49.654;6.596;2023-07-22T05:36:34;99622.49;;;16.75;38.67
74881;BME280;63427;49.654;6.596;2023-07-22T05:38:59;99625.26;;;16.74;38.96
74881;BME280;63427;49.654;6.596;2023-07-22T05:41:26;99628.34;;;16.73;39.16
74881;BME280;63427;49.654;6.596;2023-07-22T05:43:50;99627.53;;;16.78;38.75
74881;BME280;63427;49.654;6.596;2023-07-22T05:46:16;99625.69;;;16.67;38.26
74881;BME280;63427;49.654;6.596;2023-07-22T05:48:41;99627.38;;;16.91;37.79
74881;BME280;63427;49.654;6.596;2023-07-22T05:51:07;99627.39;;;16.82;38.12
74881;BME280;63427;49.654;6.596;2023-07-22T05:53:33;99628.35;;;17.07;37.71
74881;BME280;63427;49.654;6.596;2023-07-22T05:55:57;99629.90;;;17.19;37.23
74881;BME280;63427;49.654;6.596;2023-07-22T05:58:23;99632.94;;;17.33;37.24
74881;BME280;63427;49.654;6.596;2023-07-22T06:00:48;99633.43;;;17.54;36.18
74881;BME280;63427;49.654;6.596;2023-07-22T06:03:13;99629.60;;;17.51;37.01
74881;BME280;63427;49.654;6.596;2023-07-22T06:05:39;99630.12;;;17.78;35.70
74881;BME280;63427;49.654;6.596;2023-07-22T06:08:04;99636.52;;;17.83;37.04
74881;BME280;63427;49.654;6.596;2023-07-22T06:10:30;99638.37;;;17.99;36.78
74881;BME280;63427;49.654;6.596;2023-07-22T06:12:55;99637.83;;;17.86;36.70
74881;BME280;63427;49.654;6.596;2023-07-22T06:15:20;99640.68;;;17.96;36.72
74881;BME280;63427;49.654;6.596;2023-07-22T06:17:46;99642.16;;;17.96;36.65
74881;BME280;63427;49.654;6.596;2023-07-22T06:20:11;99644.78;;;18.09;35.86
74881;BME280;63427;49.654;6.596;2023-07-22T06:22:36;99644.52;;;18.18;35.10
74881;BME280;63427;49.654;6.596;2023-07-22T06:25:02;99643.75;;;18.64;34.73
74881;BME280;63427;49.654;6.596;2023-07-22T06:27:27;99644.62;;;18.22;35.08
74881;BME280;63427;49.654;6.596;2023-07-22T06:29:52;99646.28;;;18.44;35.36
74881;BME280;63427;49.654;6.596;2023-07-22T06:32:18;99648.44;;;18.67;35.39
74881;BME280;63427;49.654;6.596;2023-07-22T06:34:43;99650.67;;;18.50;35.60
74881;BME280;63427;49.654;6.596;2023-07-22T06:37:08;99654.21;;;18.72;35.26
74881;BME280;63427;49.654;6.596;2023-07-22T06:39:34;99653.66;;;18.68;35.19
74881;BME280;63427;49.654;6.596;2023-07-22T06:41:59;99657.48;;;18.99;35.13
74881;BME280;63427;49.654;6.596;2023-07-22T06:44:24;99661.83;;;19.50;34.58
74881;BME280;63427;49.654;6.596;2023-07-22T06:46:49;99665.10;;;19.04;34.88
74881;BME280;63427;49.654;6.596;2023-07-22T06:49:15;99664.98;;;19.14;34.75
74881;BME280;63427;49.654;6.596;2023-07-22T06:51:40;99657.50;;;19.22;34.89
74881;BME280;63427;49.654;6.596;2023-07-22T06:54:06;99646.69;;;19.51;34.19
74881;BME280;63427;49.654;6.596;2023-07-22T06:56:31;99645.33;;;19.54;34.27
74881;BME280;63427;49.654;6.596;2023-07-22T06:58:56;99648.28;;;19.60;34.07
74881;BME280;63427;49.654;6.596;2023-07-22T07:01:21;99651.03;;;19.52;33.71
74881;BME280;63427;49.654;6.596;2023-07-22T07:03:46;99654.58;;;19.66;33.70
74881;BME280;63427;49.654;6.596;2023-07-22T07:06:12;99657.30;;;19.69;33.53
74881;BME280;63427;49.654;6.596;2023-07-22T07:08:37;99653.70;;;19.91;33.25
74881;BME280;63427;49.654;6.596;2023-07-22T07:11:02;99656.04;;;20.17;32.56
74881;BME280;63427;49.654;6.596;2023-07-22T07:13:27;99655.07;;;19.94;33.88
74881;BME280;63427;49.654;6.596;2023-07-22T07:15:54;99650.73;;;20.15;33.66
74881;BME280;63427;49.654;6.596;2023-07-22T07:18:18;99652.25;;;20.38;32.62
74881;BME280;63427;49.654;6.596;2023-07-22T07:20:44;99650.82;;;20.50;32.55
74881;BME280;63427;49.654;6.596;2023-07-22T07:23:10;99645.50;;;20.94;32.36
74881;BME280;63427;49.654;6.596;2023-07-22T07:25:34;99645.71;;;20.73;31.40
74881;BME280;63427;49.654;6.596;2023-07-22T07:27:59;99646.82;;;21.02;31.35
74881;BME280;63427;49.654;6.596;2023-07-22T07:30:24;99645.77;;;21.23;31.38
74881;BME280;63427;49.654;6.596;2023-07-22T07:32:50;99643.40;;;21.26;31.52
74881;BME280;63427;49.654;6.596;2023-07-22T07:35:15;99646.85;;;21.39;30.94
74881;BME280;63427;49.654;6.596;2023-07-22T07:37:40;99650.90;;;21.45;30.89
74881;BME280;63427;49.654;6.596;2023-07-22T07:40:07;99647.39;;;21.68;30.46
74881;BME280;63427;49.654;6.596;2023-07-22T07:42:31;99644.75;;;21.85;30.82
74881;BME280;63427;49.654;6.596;2023-07-22T07:44:57;99643.11;;;22.24;30.44
74881;BME280;63427;49.654;6.596;2023-07-22T07:47:22;99643.47;;;22.32;29.79
74881;BME280;63427;49.654;6.596;2023-07-22T07:49:47;99646.98;;;22.61;29.99
74881;BME280;63427;49.654;6.596;2023-07-22T07:52:12;99641.74;;;22.80;29.02
74881;BME280;63427;49.654;6.596;2023-07-22T07:54:37;99642.37;;;22.91;28.84
74881;BME280;63427;49.654;6.596;2023-07-22T07:57:04;99642.75;;;22.97;28.27
74881;BME280;63427;49.654;6.596;2023-07-22T07:59:29;99644.90;;;23.50;27.91
74881;BME280;63427;49.654;6.596;2023-07-22T08:01:54;99642.66;;;23.87;27.47
74881;BME280;63427;49.654;6.596;2023-07-22T08:04:19;99638.84;;;24.16;26.70
74881;BME280;63427;49.654;6.596;2023-07-22T08:06:44;99633.75;;;24.32;24.99
74881;BME280;63427;49.654;6.596;2023-07-22T08:09:09;99634.56;;;24.87;25.29
74881;BME280;63427;49.654;6.596;2023-07-22T08:11:34;99636.55;;;24.74;24.66
74881;BME280;63427;49.654;6.596;2023-07-22T08:13:59;99635.56;;;25.03;23.94
74881;BME280;63427;49.654;6.596;2023-07-22T08:16:24;99637.31;;;25.56;23.34
74881;BME280;63427;49.654;6.596;2023-07-22T08:18:50;99637.28;;;25.65;23.03
74881;BME280;63427;49.654;6.596;2023-07-22T08:21:15;99634.04;;;26.12;22.93
74881;BME280;63427;49.654;6.596;2023-07-22T08:23:40;99636.06;;;26.28;21.41
74881;BME280;63427;49.654;6.596;2023-07-22T08:26:05;99630.97;;;26.66;20.32
74881;BME280;63427;49.654;6.596;2023-07-22T08:28:31;99638.13;;;27.11;20.25
74881;BME280;63427;49.654;6.596;2023-07-22T08:30:56;99640.25;;;27.10;20.19
74881;BME280;63427;49.654;6.596;2023-07-22T08:33:22;99636.60;;;27.04;19.68
74881;BME280;63427;49.654;6.596;2023-07-22T08:35:47;99633.21;;;27.11;19.25
74881;BME280;63427;49.654;6.596;2023-07-22T08:38:13;99638.67;;;27.68;17.83
74881;BME280;63427;49.654;6.596;2023-07-22T08:40:40;99637.53;;;27.76;18.16
74881;BME280;63427;49.654;6.596;2023-07-22T08:43:06;99635.80;;;28.03;18.19
74881;BME280;63427;49.654;6.596;2023-07-22T08:45:32;99635.23;;;28.12;18.33
74881;BME280;63427;49.654;6.596;2023-07-22T08:47:58;99631.92;;;28.21;17.91
74881;BME280;63427;49.654;6.596;2023-07-22T08:50:26;99627.80;;;28.66;17.32
74881;BME280;63427;49.654;6.596;2023-07-22T08:52:48;99627.85;;;28.33;17.01
74881;BME280;63427;49.654;6.596;2023-07-22T08:55:14;99623.69;;;28.41;17.37
74881;BME280;63427;49.654;6.596;2023-07-22T08:57:39;99628.53;;;28.58;17.27
74881;BME280;63427;49.654;6.596;2023-07-22T09:00:07;99629.36;;;28.51;16.95
74881;BME280;63427;49.654;6.596;2023-07-22T09:02:32;99623.16;;;28.53;17.55
74881;BME280;63427;49.654;6.596;2023-07-22T09:04:56;99622.02;;;28.54;16.59
74881;BME280;63427;49.654;6.596;2023-07-22T09:07:22;99619.80;;;28.96;16.47
74881;BME280;63427;49.654;6.596;2023-07-22T09:09:48;99617.56;;;28.93;16.71
74881;BME280;63427;49.654;6.596;2023-07-22T09:12:14;99615.60;;;28.79;16.18
74881;BME280;63427;49.654;6.596;2023-07-22T09:14:45;99613.90;;;29.01;16.74
74881;BME280;63427;49.654;6.596;2023-07-22T09:17:06;99618.32;;;28.25;16.88
74881;BME280;63427;49.654;6.596;2023-07-22T09:19:31;99618.59;;;28.14;17.13
74881;BME280;63427;49.654;6.596;2023-07-22T09:21:57;99621.04;;;27.90;17.15
74881;BME280;63427;49.654;6.596;2023-07-22T09:24:24;99616.20;;;27.78;18.15
74881;BME280;63427;49.654;6.596;2023-07-22T09:26:48;99616.67;;;28.16;17.29
74881;BME280;63427;49.654;6.596;2023-07-22T09:29:14;99618.67;;;28.15;17.57
74881;BME280;63427;49.654;6.596;2023-07-22T09:31:50;99614.93;;;28.92;16.82
74881;BME280;63427;49.654;6.596;2023-07-22T09:34:10;99617.66;;;29.28;16.63
74881;BME280;63427;49.654;6.596;2023-07-22T09:36:31;99612.58;;;29.31;16.47
74881;BME280;63427;49.654;6.596;2023-07-22T09:39:00;99611.88;;;29.93;15.82
74881;BME280;63427;49.654;6.596;2023-07-22T09:41:27;99612.40;;;29.45;15.89
74881;BME280;63427;49.654;6.596;2023-07-22T09:43:48;99610.56;;;29.29;16.37
74881;BME280;63427;49.654;6.596;2023-07-22T09:46:14;99610.31;;;29.06;16.02
74881;BME280;63427;49.654;6.596;2023-07-22T09:48:40;99603.83;;;28.79;16.10
74881;BME280;63427;49.654;6.596;2023-07-22T09:51:05;99608.64;;;28.30;16.95
74881;BME280;63427;49.654;6.596;2023-07-22T09:53:31;99608.51;;;28.57;16.26
74881;BME280;63427;49.654;6.596;2023-07-22T09:56:03;99606.78;;;28.80;16.20
74881;BME280;63427;49.654;6.596;2023-07-22T09:58:24;99603.51;;;28.67;16.38
74881;BME280;63427;49.654;6.596;2023-07-22T10:00:50;99607.25;;;29.17;16.08
74881;BME280;63427;49.654;6.596;2023-07-22T10:03:16;99602.95;;;28.52;16.21
74881;BME280;63427;49.654;6.596;2023-07-22T10:05:42;99606.49;;;28.97;16.52
74881;BME280;63427;49.654;6.596;2023-07-22T10:08:06;99604.46;;;28.93;16.20
74881;BME280;63427;49.654;6.596;2023-07-22T10:10:34;99602.57;;;28.65;16.30
74881;BME280;63427;49.654;6.596;2023-07-22T10:12:58;99616.20;;;26.09;18.19
74881;BME280;63427;49.654;6.596;2023-07-22T10:15:25;99616.40;;;27.73;17.59
74881;BME280;63427;49.654;6.596;2023-07-22T10:17:49;99616.55;;;27.85;17.27
74881;BME280;63427;49.654;6.596;2023-07-22T10:20:20;99613.19;;;27.96;17.25
74881;BME280;63427;49.654;6.596;2023-07-22T10:22:42;99607.98;;;28.63;17.18
74881;BME280;63427;49.654;6.596;2023-07-22T10:25:07;99602.54;;;28.89;16.57
74881;BME280;63427;49.654;6.596;2023-07-22T10:27:33;99604.78;;;28.82;16.56
74881;BME280;63427;49.654;6.596;2023-07-22T10:29:59;99602.09;;;29.24;16.41
74881;BME280;63427;49.654;6.596;2023-07-22T10:32:23;99600.04;;;29.16;16.39
74881;BME280;63427;49.654;6.596;2023-07-22T10:34:49;99602.64;;;29.41;15.89
74881;BME280;63427;49.654;6.596;2023-07-22T10:37:17;99598.20;;;29.48;15.88
74881;BME280;63427;49.654;6.596;2023-07-22T10:39:40;99599.56;;;29.40;15.30
74881;BME280;63427;49.654;6.596;2023-07-22T10:42:06;99596.62;;;29.10;15.58
74881;BME280;63427;49.654;6.596;2023-07-22T10:44:32;99594.12;;;28.26;16.35
74881;BME280;63427;49.654;6.596;2023-07-22T10:46:58;99592.25;;;28.18;16.88
74881;BME280;63427;49.654;6.596;2023-07-22T10:49:23;99590.46;;;28.42;16.32
74881;BME280;63427;49.654;6.596;2023-07-22T10:51:50;99585.30;;;28.83;16.10
74881;BME280;63427;49.654;6.596;2023-07-22T10:54:15;99580.09;;;29.01;15.91
74881;BME280;63427;49.654;6.596;2023-07-22T10:56:42;99586.35;;;28.58;16.37
74881;BME280;63427;49.654;6.596;2023-07-22T10:59:10;99578.44;;;29.30;16.23
74881;BME280;63427;49.654;6.596;2023-07-22T11:01:35;99575.37;;;28.58;15.90
74881;BME280;63427;49.654;6.596;2023-07-22T11:04:05;99577.68;;;29.25;15.88
74881;BME280;63427;49.654;6.596;2023-07-22T11:06:24;99578.19;;;29.09;15.98
74881;BME280;63427;49.654;6.596;2023-07-22T11:08:49;99577.08;;;27.84;16.55
74881;BME280;63427;49.654;6.596;2023-07-22T11:11:15;99580.82;;;27.79;17.19
74881;BME280;63427;49.654;6.596;2023-07-22T11:13:41;99575.79;;;28.56;16.92
74881;BME280;63427;49.654;6.596;2023-07-22T11:16:10;99575.43;;;28.44;16.76
74881;BME280;63427;49.654;6.596;2023-07-22T11:18:39;99565.56;;;28.57;16.59
74881;BME280;63427;49.654;6.596;2023-07-22T11:20:58;99565.96;;;28.74;16.39
74881;BME280;63427;49.654;6.596;2023-07-22T11:23:24;99570.80;;;29.16;15.81
74881;BME280;63427;49.654;6.596;2023-07-22T11:25:50;99571.12;;;29.18;15.65
74881;BME280;63427;49.654;6.596;2023-07-22T11:28:15;99569.54;;;29.37;15.81
74881;BME280;63427;49.654;6.596;2023-07-22T11:30:41;99565.40;;;29.36;15.30
74881;BME280;63427;49.654;6.596;2023-07-22T11:33:07;99567.92;;;29.67;15.84
74881;BME280;63427;49.654;6.596;2023-07-22T11:35:33;99565.92;;;29.02;15.79
74881;BME280;63427;49.654;6.596;2023-07-22T11:38:01;99555.96;;;28.75;16.63
74881;BME280;63427;49.654;6.596;2023-07-22T11:40:32;99552.17;;;29.51;16.30
74881;BME280;63427;49.654;6.596;2023-07-22T11:42:50;99564.22;;;27.89;16.39
74881;BME280;63427;49.654;6.596;2023-07-22T11:45:16;99555.58;;;28.49;16.84
74881;BME280;63427;49.654;6.596;2023-07-22T11:47:41;99548.09;;;29.07;16.22
74881;BME280;63427;49.654;6.596;2023-07-22T11:50:08;99548.69;;;29.48;15.94
74881;BME280;63427;49.654;6.596;2023-07-22T11:52:33;99547.31;;;29.97;15.84
74881;BME280;63427;49.654;6.596;2023-07-22T11:55:01;99558.60;;;29.80;15.85
74881;BME280;63427;49.654;6.596;2023-07-22T11:57:24;99551.00;;;28.25;16.15
74881;BME280;63427;49.654;6.596;2023-07-22T11:59:51;99551.90;;;29.08;15.85
74881;BME280;63427;49.654;6.596;2023-07-22T12:02:17;99548.95;;;29.46;15.56
74881;BME280;63427;49.654;6.596;2023-07-22T12:04:42;99543.62;;;29.88;15.79
74881;BME280;63427;49.654;6.596;2023-07-22T12:07:23;99543.72;;;29.45;15.54
74881;BME280;63427;49.654;6.596;2023-07-22T12:09:33;99545.55;;;30.05;15.10
74881;BME280;63427;49.654;6.596;2023-07-22T12:12:00;99542.19;;;29.97;15.69
74881;BME280;63427;49.654;6.596;2023-07-22T12:16:55;99539.66;;;29.45;15.27
74881;BME280;63427;49.654;6.596;2023-07-22T12:19:16;99543.13;;;30.63;15.36
74881;BME280;63427;49.654;6.596;2023-07-22T12:21:47;99541.12;;;30.04;15.03
74881;BME280;63427;49.654;6.596;2023-07-22T12:24:07;99536.20;;;30.86;14.30
74881;BME280;63427;49.654;6.596;2023-07-22T12:26:33;99537.19;;;29.89;14.80
74881;BME280;63427;49.654;6.596;2023-07-22T12:28:59;99538.23;;;30.41;14.91
74881;BME280;63427;49.654;6.596;2023-07-22T12:31:24;99539.78;;;30.63;14.17
74881;BME280;63427;49.654;6.596;2023-07-22T12:33:50;99530.07;;;31.26;14.30
74881;BME280;63427;49.654;6.596;2023-07-22T12:36:16;99535.60;;;31.36;14.13
74881;BME280;63427;49.654;6.596;2023-07-22T12:38:41;99533.09;;;31.26;14.01
74881;BME280;63427;49.654;6.596;2023-07-22T12:41:07;99531.50;;;31.29;14.36
74881;BME280;63427;49.654;6.596;2023-07-22T12:43:33;99523.65;;;31.80;13.85
74881;BME280;63427;49.654;6.596;2023-07-22T12:45:59;99525.53;;;31.98;13.54
74881;BME280;63427;49.654;6.596;2023-07-22T12:48:24;99530.44;;;31.63;13.68
74881;BME280;63427;49.654;6.596;2023-07-22T12:50:50;99525.79;;;31.26;13.84
74881;BME280;63427;49.654;6.596;2023-07-22T12:53:16;99525.03;;;31.23;13.99